createdAt,value
2023-01-19T00:07:30.091Z,0.9
2023-01-19T00:37:36.436Z,1
2023-01-19T00:47:38.928Z,1.1
2023-01-19T00:57:40.961Z,1.1
2023-01-19T01:17:46.069Z,1.2
2023-01-19T01:37:49.593Z,1.4
2023-01-19T01:57:53.812Z,1.2
2023-01-19T02:07:55.650Z,1.3
2023-01-19T02:17:58.265Z,1.3
2023-01-19T02:28:00.834Z,1.3
2023-01-19T02:38:03.065Z,1.4
2023-01-19T02:48:05.259Z,1.3
2023-01-19T02:58:07.870Z,1.2
2023-01-19T03:08:10.416Z,1.2
2023-01-19T03:18:12.564Z,1.3
2023-01-19T03:28:14.631Z,1.3
2023-01-19T03:38:16.631Z,1.3
2023-01-19T03:48:18.862Z,1.2
2023-01-19T03:58:21.208Z,1.3
2023-01-19T04:08:23.420Z,1.5
2023-01-19T04:18:25.581Z,1.4
2023-01-19T04:28:27.554Z,0.8
2023-01-19T04:48:31.882Z,-0.3
2023-01-19T05:08:35.476Z,-0.3
2023-01-19T05:28:39.535Z,-0.3
2023-01-19T05:48:43.909Z,-0.3
2023-01-19T06:18:50.470Z,-0.4
2023-01-19T06:28:53.124Z,-0.5
2023-01-19T06:48:56.977Z,-0.5
2023-01-19T07:09:02.012Z,-0.4
2023-01-19T07:19:10.956Z,-0.5
2023-01-19T07:39:22.079Z,-0.3
2023-01-19T07:49:24.085Z,-0.2
2023-01-19T07:59:26.047Z,-0.2
2023-01-19T08:09:28.575Z,0
2023-01-19T08:19:30.331Z,0
2023-01-19T08:39:34.650Z,0.2
2023-01-19T08:49:36.375Z,0.2
2023-01-19T08:59:38.542Z,0.3
2023-01-19T09:09:40.998Z,0.4
2023-01-19T09:19:43.263Z,0.5
2023-01-19T09:29:45.668Z,0.6
2023-01-19T09:39:48.373Z,0.7
2023-01-19T09:49:50.519Z,0.7
2023-01-19T10:09:55.046Z,0.9
2023-01-19T10:19:57.226Z,0.9
2023-01-19T10:29:59.443Z,1
2023-01-19T10:40:02.059Z,1
2023-01-19T10:50:04.584Z,1.1
2023-01-19T11:00:06.815Z,1.3
2023-01-19T11:10:08.420Z,1.3
2023-01-19T11:20:10.373Z,1.3
2023-01-19T11:50:17.012Z,1.7
2023-01-19T12:00:19.396Z,1.6
2023-01-19T12:10:21.758Z,1.6
2023-01-19T12:20:24.035Z,1.6
2023-01-19T12:30:26.215Z,1.7
2023-01-19T12:40:28.335Z,1.8
2023-01-19T12:50:30.249Z,1.8
2023-01-19T13:00:32.572Z,1.8
2023-01-19T13:20:37.209Z,1.9
2023-01-19T13:30:39.914Z,1.9
2023-01-19T13:40:42.117Z,1.8
2023-01-19T13:50:44.300Z,1.9
2023-01-19T14:00:46.376Z,2.1
2023-01-19T14:10:48.431Z,2.1
2023-01-19T14:20:50.989Z,2.1
2023-01-19T14:30:53.423Z,1.9
2023-01-19T14:40:55.622Z,1.9
2023-01-19T14:51:03.073Z,1.9
2023-01-19T15:00:59.685Z,1.9
2023-01-19T15:11:02.051Z,2
2023-01-19T15:21:04.087Z,2
2023-01-19T15:31:06.162Z,1.8
2023-01-19T15:41:07.744Z,1.7
2023-01-19T15:51:09.838Z,1.6
2023-01-19T16:02:16.299Z,1.4
2023-01-19T16:11:13.643Z,1.1
2023-01-19T16:21:16.173Z,1.1
2023-01-19T16:31:17.932Z,1.2
2023-01-19T16:41:20.068Z,1.1
2023-01-19T16:51:22.305Z,1.1
2023-01-19T17:01:24.267Z,0.9
2023-01-19T17:31:31.405Z,0.8
2023-01-19T17:41:33.275Z,0.8
2023-01-19T18:01:37.804Z,0.6
2023-01-19T18:11:40.215Z,0.6
2023-01-19T18:21:42.671Z,0.5
2023-01-19T18:31:44.955Z,0.5
2023-01-19T18:41:47.173Z,0.6
2023-01-19T18:51:48.935Z,0.6
2023-01-19T19:01:51.447Z,0.6
2023-01-19T19:11:53.421Z,0.7
2023-01-19T19:21:55.897Z,0.8
2023-01-19T19:31:58.333Z,0.9
2023-01-19T19:42:00.008Z,0.9
2023-01-19T19:52:02.203Z,0.9
2023-01-19T20:02:04.202Z,0.9
2023-01-19T20:12:05.905Z,1
2023-01-19T20:22:08.428Z,1.1
2023-01-19T20:42:12.415Z,1.1
2023-01-19T20:52:14.440Z,1
2023-01-19T21:02:16.961Z,1
2023-01-19T21:12:19.048Z,1
2023-01-19T21:22:21.367Z,1
2023-01-19T21:32:23.167Z,1
2023-01-19T21:42:24.843Z,1
2023-01-19T21:52:27.411Z,1.1
2023-01-19T22:02:38.137Z,1.1
2023-01-19T22:12:32.578Z,1.1
2023-01-19T22:22:34.940Z,1.1
2023-01-19T22:32:37.461Z,1.1
2023-01-19T22:42:39.745Z,1.1
2023-01-19T22:52:41.997Z,1.1
2023-01-19T23:02:44.492Z,1.1
2023-01-19T23:12:46.588Z,1.1
2023-01-19T23:22:48.523Z,1
2023-01-19T23:32:50.641Z,1
2023-01-19T23:42:52.431Z,1
2023-01-19T23:52:54.241Z,1
